createdAt,value
2023-05-13T00:01:20.512Z,0.50
2023-05-13T00:03:48.991Z,0.75
2023-05-13T00:06:17.470Z,0.00
2023-05-13T00:08:46.058Z,0.00
2023-05-13T00:11:14.436Z,0.75
2023-05-13T00:13:42.844Z,1.00
2023-05-13T00:16:11.205Z,1.00
2023-05-13T00:18:39.593Z,0.25
2023-05-13T00:21:08.141Z,1.00
2023-05-13T00:23:36.445Z,0.50
2023-05-13T00:26:05.016Z,0.00
2023-05-13T00:28:33.380Z,1.00
2023-05-13T00:31:01.754Z,1.00
2023-05-13T00:33:30.180Z,1.00
2023-05-13T00:35:58.927Z,1.00
2023-05-13T00:38:27.241Z,2.25
2023-05-13T00:40:55.694Z,1.00
2023-05-13T00:43:24.038Z,1.75
2023-05-13T00:45:52.448Z,1.00
2023-05-13T00:48:20.993Z,1.00
2023-05-13T00:50:50.374Z,1.00
2023-05-13T00:53:19.516Z,1.50
2023-05-13T00:55:48.627Z,1.50
2023-05-13T00:58:18.844Z,3.50
2023-05-13T01:01:00.987Z,3.00
2023-05-13T01:03:40.601Z,3.00
2023-05-13T01:06:22.460Z,2.00
2023-05-13T01:09:21.200Z,1.25
2023-05-13T01:11:53.838Z,1.50
2023-05-13T01:14:30.784Z,1.00
2023-05-13T01:17:12.905Z,1.00
2023-05-13T01:19:48.295Z,2.75
2023-05-13T01:22:16.802Z,1.50
2023-05-13T01:24:46.706Z,1.00
2023-05-13T01:27:15.973Z,1.00
2023-05-13T01:29:45.373Z,1.00
2023-05-13T01:32:14.885Z,1.25
2023-05-13T01:34:44.246Z,2.00
2023-05-13T01:37:12.757Z,1.00
2023-05-13T01:39:42.140Z,2.00
2023-05-13T01:42:12.500Z,1.00
2023-05-13T01:44:40.879Z,1.00
2023-05-13T01:47:09.386Z,2.00
2023-05-13T01:49:37.760Z,1.75
2023-05-13T01:52:06.413Z,2.25
2023-05-13T01:54:35.346Z,1.25
2023-05-13T01:57:04.287Z,2.00
2023-05-13T01:59:33.063Z,2.50
2023-05-13T02:02:01.590Z,2.25
2023-05-13T02:04:30.095Z,2.50
2023-05-13T02:06:58.459Z,0.75
2023-05-13T02:09:26.793Z,1.00
2023-05-13T02:11:55.246Z,2.00
2023-05-13T02:14:23.577Z,2.25
2023-05-13T02:16:52.025Z,2.25
2023-05-13T02:19:20.808Z,2.00
2023-05-13T02:21:49.180Z,2.00
2023-05-13T02:24:18.393Z,1.75
2023-05-13T02:26:46.815Z,1.50
2023-05-13T02:29:15.748Z,3.00
2023-05-13T02:31:44.176Z,2.00
2023-05-13T02:34:12.595Z,2.25
2023-05-13T02:36:41.216Z,2.00
2023-05-13T02:39:09.603Z,1.50
2023-05-13T02:41:38.328Z,2.25
2023-05-13T02:44:06.721Z,3.00
2023-05-13T02:46:35.225Z,2.75
2023-05-13T02:49:03.868Z,2.50
2023-05-13T02:51:32.223Z,3.75
2023-05-13T02:54:00.615Z,2.00
2023-05-13T02:56:28.982Z,2.25
2023-05-13T02:58:57.364Z,3.00
2023-05-13T03:01:27.753Z,3.00
2023-05-13T03:03:56.448Z,2.75
2023-05-13T03:06:24.776Z,3.25
2023-05-13T03:08:53.319Z,2.50
2023-05-13T03:11:22.149Z,2.50
2023-05-13T03:13:50.747Z,2.25
2023-05-13T03:16:19.144Z,3.75
2023-05-13T03:18:47.536Z,3.25
2023-05-13T03:21:16.005Z,3.50
2023-05-13T03:23:44.341Z,2.75
2023-05-13T03:26:12.755Z,3.50
2023-05-13T03:28:41.098Z,3.75
2023-05-13T03:31:09.684Z,3.25
2023-05-13T03:33:38.218Z,4.00
2023-05-13T03:36:08.024Z,4.00
2023-05-13T03:38:36.422Z,3.50
2023-05-13T03:41:04.770Z,3.75
2023-05-13T03:43:33.462Z,4.50
2023-05-13T03:46:01.887Z,3.25
2023-05-13T03:48:30.253Z,4.75
2023-05-13T03:50:58.566Z,5.00
2023-05-13T03:53:26.965Z,5.00
2023-05-13T03:55:55.321Z,4.00
2023-05-13T03:58:23.762Z,4.25
2023-05-13T04:00:52.075Z,4.50
2023-05-13T04:03:20.714Z,3.25
2023-05-13T04:05:50.039Z,5.25
2023-05-13T04:08:18.433Z,4.75
2023-05-13T04:10:46.802Z,4.25
2023-05-13T04:13:15.600Z,5.50
2023-05-13T04:15:44.014Z,5.50
2023-05-13T04:18:12.444Z,4.75
2023-05-13T04:20:41.426Z,5.75
2023-05-13T04:23:09.831Z,4.00
2023-05-13T04:25:40.911Z,4.25
2023-05-13T04:28:09.394Z,6.50
2023-05-13T04:30:38.019Z,6.00
2023-05-13T04:33:07.268Z,4.00
2023-05-13T04:35:35.705Z,4.75
2023-05-13T04:38:04.690Z,4.25
2023-05-13T04:40:33.140Z,5.00
2023-05-13T04:43:01.846Z,4.75
2023-05-13T04:45:31.445Z,6.00
2023-05-13T04:47:59.880Z,4.75
2023-05-13T04:50:28.400Z,6.25
2023-05-13T04:52:57.536Z,3.25
2023-05-13T04:55:27.762Z,4.75
2023-05-13T04:57:56.336Z,4.75
2023-05-13T05:00:25.681Z,4.75
2023-05-13T05:02:54.199Z,5.50
2023-05-13T05:05:22.670Z,5.25
2023-05-13T05:07:51.427Z,4.00
2023-05-13T05:10:20.309Z,4.75
2023-05-13T05:12:49.940Z,3.50
2023-05-13T05:15:18.487Z,3.50
2023-05-13T05:17:47.106Z,3.25
2023-05-13T05:20:15.664Z,3.25
2023-05-13T05:22:44.128Z,4.00
2023-05-13T05:25:12.621Z,4.50
2023-05-13T05:27:41.164Z,4.75
2023-05-13T05:30:11.733Z,6.50
2023-05-13T05:32:40.183Z,4.00
2023-05-13T05:35:09.583Z,5.00
2023-05-13T05:37:38.036Z,5.00
2023-05-13T05:40:07.165Z,3.00
2023-05-13T05:42:35.668Z,3.00
2023-05-13T05:45:04.423Z,1.00
2023-05-13T05:47:32.893Z,1.00
2023-05-13T05:50:01.512Z,1.00
2023-05-13T05:52:29.890Z,0.00
2023-05-13T05:54:58.308Z,0.00
2023-05-13T05:57:26.845Z,1.00
2023-05-13T05:59:55.283Z,0.50
2023-05-13T06:02:23.756Z,0.25
2023-05-13T06:04:52.255Z,1.25
2023-05-13T06:07:20.635Z,0.00
2023-05-13T06:09:49.017Z,0.00
2023-05-13T06:12:17.390Z,0.00
2023-05-13T06:14:45.791Z,0.00
2023-05-13T06:17:15.757Z,0.00
2023-05-13T06:19:44.232Z,0.00
2023-05-13T06:22:13.212Z,0.00
2023-05-13T06:24:43.823Z,0.00
2023-05-13T06:27:15.919Z,0.00
2023-05-13T06:29:46.106Z,0.00
2023-05-13T06:32:14.482Z,0.00
2023-05-13T06:34:46.653Z,0.00
2023-05-13T06:37:15.209Z,0.00
2023-05-13T06:39:43.651Z,0.00
2023-05-13T06:42:14.168Z,0.00
2023-05-13T06:44:42.743Z,0.00
2023-05-13T06:47:16.910Z,0.00
2023-05-13T06:49:45.390Z,0.00
2023-05-13T06:52:13.744Z,0.00
2023-05-13T06:54:42.218Z,0.00
2023-05-13T06:57:10.587Z,0.00
2023-05-13T06:59:39.079Z,0.00
2023-05-13T07:02:10.638Z,0.00
2023-05-13T07:04:39.213Z,0.00
2023-05-13T07:07:07.573Z,0.00
2023-05-13T07:09:36.198Z,0.00
2023-05-13T07:12:04.777Z,0.00
2023-05-13T07:14:33.182Z,0.00
2023-05-13T07:17:01.668Z,0.00
2023-05-13T07:19:30.068Z,0.00
2023-05-13T07:21:59.348Z,0.00
2023-05-13T07:24:27.769Z,0.00
2023-05-13T07:26:56.196Z,0.00
2023-05-13T07:29:25.848Z,0.00
2023-05-13T07:31:54.893Z,0.00
2023-05-13T07:34:23.428Z,0.00
2023-05-13T07:36:51.836Z,0.00
2023-05-13T07:39:20.263Z,0.00
2023-05-13T07:41:48.652Z,0.00
2023-05-13T07:44:33.416Z,0.00
2023-05-13T07:47:15.002Z,0.00
2023-05-13T07:49:43.518Z,0.00
2023-05-13T07:52:11.928Z,0.00
2023-05-13T07:54:40.471Z,0.00
2023-05-13T07:57:09.160Z,0.00
2023-05-13T07:59:37.500Z,0.00
2023-05-13T08:02:05.989Z,0.00
2023-05-13T08:04:34.464Z,1.00
2023-05-13T08:07:03.286Z,0.00
2023-05-13T08:09:31.859Z,0.75
2023-05-13T08:12:00.211Z,0.50
2023-05-13T08:14:28.556Z,0.25
2023-05-13T08:16:57.310Z,0.50
2023-05-13T08:19:25.617Z,0.00
2023-05-13T08:21:53.997Z,0.75
2023-05-13T08:24:22.324Z,1.00
2023-05-13T08:26:50.688Z,0.00
2023-05-13T08:29:19.000Z,1.00
2023-05-13T08:31:47.542Z,1.00
2023-05-13T08:34:15.931Z,0.00
2023-05-13T08:36:44.386Z,0.50
2023-05-13T08:39:12.753Z,0.50
2023-05-13T08:41:44.734Z,0.00
2023-05-13T08:44:16.783Z,0.00
2023-05-13T08:46:52.584Z,0.50
2023-05-13T08:49:22.074Z,1.00
2023-05-13T08:51:50.540Z,1.50
2023-05-13T08:54:21.087Z,0.50
2023-05-13T08:56:51.605Z,2.00
2023-05-13T08:59:19.925Z,1.50
2023-05-13T09:01:51.660Z,1.75
2023-05-13T09:04:21.466Z,1.00
2023-05-13T09:06:50.237Z,1.00
2023-05-13T09:09:18.764Z,1.00
2023-05-13T09:11:49.738Z,1.00
2023-05-13T09:14:20.838Z,3.00
2023-05-13T09:16:49.713Z,1.00
2023-05-13T09:19:20.340Z,1.00
2023-05-13T09:21:49.145Z,1.00
2023-05-13T09:24:22.588Z,2.50
2023-05-13T09:26:53.025Z,1.75
2023-05-13T09:29:21.379Z,2.00
2023-05-13T09:31:57.387Z,2.00
2023-05-13T09:34:33.654Z,2.00
2023-05-13T09:37:09.998Z,1.25
2023-05-13T09:39:43.059Z,2.25
2023-05-13T09:42:18.771Z,2.00
2023-05-13T09:44:48.353Z,3.50
2023-05-13T09:47:17.662Z,2.75
2023-05-13T09:49:56.279Z,2.50
2023-05-13T09:52:24.736Z,3.00
2023-05-13T09:54:53.104Z,3.75
2023-05-13T09:57:22.417Z,3.00
2023-05-13T09:59:51.375Z,4.50
2023-05-13T10:02:20.218Z,3.75
2023-05-13T10:04:48.671Z,3.75
2023-05-13T10:07:17.154Z,2.50
2023-05-13T10:09:48.027Z,3.25
2023-05-13T10:12:16.644Z,2.75
2023-05-13T10:14:45.393Z,3.25
2023-05-13T10:17:14.847Z,3.25
2023-05-13T10:19:43.582Z,3.50
2023-05-13T10:22:13.333Z,3.25
2023-05-13T10:24:43.792Z,2.50
2023-05-13T10:27:13.407Z,4.00
2023-05-13T10:29:44.146Z,4.50
2023-05-13T10:32:13.962Z,2.50
2023-05-13T10:34:44.561Z,2.50
2023-05-13T10:37:35.265Z,2.25
2023-05-13T10:40:40.689Z,3.00
2023-05-13T10:43:16.435Z,3.50
2023-05-13T10:46:01.012Z,3.00
2023-05-13T10:48:41.707Z,5.00
2023-05-13T10:51:14.576Z,3.00
2023-05-13T10:53:54.621Z,3.75
2023-05-13T10:56:27.884Z,2.75
2023-05-13T10:59:01.217Z,2.25
2023-05-13T11:01:35.890Z,3.75
2023-05-13T11:04:06.654Z,3.50
2023-05-13T11:06:43.086Z,3.00
2023-05-13T11:09:15.557Z,3.75
2023-05-13T11:11:49.891Z,5.00
2023-05-13T11:14:23.188Z,4.00
2023-05-13T11:17:03.324Z,4.00
2023-05-13T11:19:33.768Z,2.50
2023-05-13T11:22:14.843Z,4.00
2023-05-13T11:24:46.356Z,2.75
2023-05-13T11:27:23.406Z,3.50
2023-05-13T11:29:53.999Z,3.50
2023-05-13T11:32:54.184Z,2.75
2023-05-13T11:35:29.746Z,3.00
2023-05-13T11:38:00.553Z,2.75
2023-05-13T11:40:37.983Z,3.75
2023-05-13T11:43:07.218Z,3.00
2023-05-13T11:45:41.105Z,3.50
2023-05-13T11:48:23.208Z,2.00
2023-05-13T11:50:55.588Z,2.75
2023-05-13T11:53:27.109Z,3.00
2023-05-13T11:55:56.654Z,4.25
2023-05-13T11:58:25.090Z,2.00
2023-05-13T12:00:56.330Z,2.00
2023-05-13T12:03:24.811Z,2.25
2023-05-13T12:06:02.860Z,2.50
2023-05-13T12:08:31.259Z,3.00
2023-05-13T12:11:01.087Z,3.00
2023-05-13T12:13:29.694Z,2.25
2023-05-13T12:15:58.279Z,4.00
2023-05-13T12:18:26.725Z,3.00
2023-05-13T12:20:55.105Z,4.00
2023-05-13T12:23:23.459Z,1.50
2023-05-13T12:25:52.269Z,3.00
2023-05-13T12:28:25.515Z,2.00
2023-05-13T12:30:57.218Z,3.00
2023-05-13T12:33:31.901Z,3.25
2023-05-13T12:36:26.458Z,3.00
2023-05-13T12:39:11.848Z,3.00
2023-05-13T12:41:51.780Z,3.00
2023-05-13T12:44:20.303Z,3.25
2023-05-13T12:46:58.118Z,3.00
2023-05-13T12:49:26.598Z,2.25
2023-05-13T12:51:56.598Z,3.00
2023-05-13T12:54:25.134Z,2.50
2023-05-13T12:56:54.490Z,4.00
2023-05-13T12:59:23.015Z,4.00
2023-05-13T13:01:52.118Z,1.25
2023-05-13T13:04:20.677Z,2.25
2023-05-13T13:06:49.165Z,3.00
2023-05-13T13:09:17.649Z,2.50
2023-05-13T13:11:46.032Z,2.75
2023-05-13T13:14:14.439Z,4.50
2023-05-13T13:16:42.906Z,3.75
2023-05-13T13:19:11.445Z,3.75
2023-05-13T13:21:39.857Z,3.50
2023-05-13T13:24:08.488Z,2.00
2023-05-13T13:26:37.010Z,3.00
2023-05-13T13:29:05.443Z,3.25
2023-05-13T13:31:33.879Z,2.50
2023-05-13T13:34:05.309Z,3.00
2023-05-13T13:36:33.835Z,4.00
2023-05-13T13:39:02.233Z,4.00
2023-05-13T13:41:30.723Z,3.75
2023-05-13T13:43:59.098Z,2.25
2023-05-13T13:46:27.818Z,4.50
2023-05-13T13:48:56.443Z,3.25
2023-05-13T13:51:24.864Z,3.25
2023-05-13T13:53:53.279Z,3.00
2023-05-13T13:56:22.169Z,3.75
2023-05-13T13:58:50.506Z,4.25
2023-05-13T14:01:20.510Z,3.00
2023-05-13T14:03:52.035Z,1.50
2023-05-13T14:06:20.928Z,3.50
2023-05-13T14:08:51.929Z,2.25
2023-05-13T14:11:20.264Z,3.75
2023-05-13T14:13:48.607Z,3.25
2023-05-13T14:16:17.041Z,3.00
2023-05-13T14:18:45.481Z,3.25
2023-05-13T14:21:13.823Z,3.00
2023-05-13T14:23:42.922Z,3.50
2023-05-13T14:26:16.507Z,4.00
2023-05-13T14:28:45.296Z,3.75
2023-05-13T14:31:13.657Z,3.25
2023-05-13T14:33:41.995Z,2.00
2023-05-13T14:36:12.098Z,3.50
2023-05-13T14:38:40.829Z,2.75
2023-05-13T14:41:09.160Z,3.50
2023-05-13T14:43:37.619Z,3.00
2023-05-13T14:46:06.067Z,3.50
2023-05-13T14:48:34.491Z,3.00
2023-05-13T14:51:02.891Z,5.00
2023-05-13T14:53:31.320Z,4.75
2023-05-13T14:55:59.804Z,2.50
2023-05-13T14:58:28.144Z,4.00
2023-05-13T15:00:56.955Z,3.75
2023-05-13T15:03:25.332Z,3.50
2023-05-13T15:05:55.331Z,3.00
2023-05-13T15:08:23.966Z,3.25
2023-05-13T15:10:52.310Z,4.00
2023-05-13T15:13:20.765Z,2.50
2023-05-13T15:15:49.267Z,3.75
2023-05-13T15:18:17.619Z,3.75
2023-05-13T15:20:46.351Z,4.00
2023-05-13T15:23:15.112Z,3.00
2023-05-13T15:25:43.560Z,6.00
2023-05-13T15:28:11.907Z,3.00
2023-05-13T15:30:40.329Z,4.00
2023-05-13T15:33:08.774Z,2.75
2023-05-13T15:35:37.400Z,3.00
2023-05-13T15:38:05.792Z,4.00
2023-05-13T15:40:34.183Z,4.00
2023-05-13T15:43:02.665Z,3.75
2023-05-13T15:45:31.586Z,3.50
2023-05-13T15:48:00.217Z,3.00
2023-05-13T15:50:28.612Z,4.00
2023-05-13T15:52:56.960Z,3.75
2023-05-13T15:55:25.332Z,4.00
2023-05-13T15:57:53.923Z,2.50
2023-05-13T16:00:22.660Z,3.50
2023-05-13T16:02:51.251Z,4.00
2023-05-13T16:05:20.273Z,3.00
2023-05-13T16:07:48.677Z,4.00
2023-05-13T16:10:17.016Z,4.00
2023-05-13T16:12:45.518Z,4.00
2023-05-13T16:15:13.863Z,4.00
2023-05-13T16:17:42.282Z,3.00
2023-05-13T16:20:11.818Z,4.75
2023-05-13T16:22:40.762Z,3.00
2023-05-13T16:25:11.284Z,3.75
2023-05-13T16:27:40.615Z,3.50
2023-05-13T16:30:09.439Z,3.50
2023-05-13T16:32:38.549Z,4.00
2023-05-13T16:35:07.651Z,4.50
2023-05-13T16:37:36.404Z,2.75
2023-05-13T16:40:05.864Z,3.00
2023-05-13T16:42:34.187Z,5.25
2023-05-13T16:45:02.566Z,3.00
2023-05-13T16:47:30.966Z,4.25
2023-05-13T16:49:59.462Z,3.25
2023-05-13T16:52:28.114Z,3.75
2023-05-13T16:54:58.458Z,4.00
2023-05-13T16:57:27.669Z,3.00
2023-05-13T16:59:56.528Z,4.25
2023-05-13T17:02:25.027Z,4.25
2023-05-13T17:04:53.624Z,3.25
2023-05-13T17:07:22.012Z,3.75
2023-05-13T17:09:50.404Z,2.50
2023-05-13T17:12:18.861Z,3.25
2023-05-13T17:14:47.216Z,3.50
2023-05-13T17:17:15.654Z,3.00
2023-05-13T17:19:44.123Z,3.00
2023-05-13T17:22:12.464Z,2.25
2023-05-13T17:24:41.530Z,3.00
2023-05-13T17:27:10.205Z,4.50
2023-05-13T17:29:38.590Z,3.25
2023-05-13T17:32:07.362Z,3.50
2023-05-13T17:34:35.702Z,3.00
2023-05-13T17:37:04.078Z,3.25
2023-05-13T17:39:32.517Z,2.00
2023-05-13T17:42:00.834Z,4.00
2023-05-13T17:44:29.199Z,3.00
2023-05-13T17:46:57.652Z,3.00
2023-05-13T17:49:26.005Z,3.75
2023-05-13T17:51:54.324Z,3.00
2023-05-13T17:54:22.668Z,2.25
2023-05-13T17:56:51.587Z,2.50
2023-05-13T17:59:19.943Z,2.50
2023-05-13T18:01:48.303Z,2.00
2023-05-13T18:04:17.018Z,3.00
2023-05-13T18:06:45.352Z,3.00
2023-05-13T18:09:13.675Z,2.75
2023-05-13T18:11:42.128Z,2.75
2023-05-13T18:14:10.472Z,2.50
2023-05-13T18:16:38.922Z,2.75
2023-05-13T18:19:07.782Z,2.00
2023-05-13T18:21:36.305Z,3.00
2023-05-13T18:24:04.716Z,2.25
2023-05-13T18:26:33.048Z,3.75
2023-05-13T18:29:01.565Z,3.00
2023-05-13T18:31:29.990Z,2.00
2023-05-13T18:33:58.345Z,2.00
2023-05-13T18:36:26.832Z,2.75
2023-05-13T18:38:55.391Z,1.00
2023-05-13T18:41:23.783Z,2.75
2023-05-13T18:43:52.417Z,3.00
2023-05-13T18:46:21.892Z,2.00
2023-05-13T18:48:50.421Z,1.75
2023-05-13T18:51:18.848Z,2.25
2023-05-13T18:53:47.153Z,2.25
2023-05-13T18:56:15.510Z,4.00
2023-05-13T18:58:46.699Z,3.25
2023-05-13T19:01:16.550Z,1.75
2023-05-13T19:03:45.210Z,2.25
2023-05-13T19:06:13.922Z,3.75
2023-05-13T19:08:42.750Z,3.25
2023-05-13T19:11:11.176Z,2.00
2023-05-13T19:13:46.806Z,2.25
2023-05-13T19:16:16.172Z,2.75
2023-05-13T19:18:44.615Z,2.50
2023-05-13T19:21:13.011Z,3.00
2023-05-13T19:23:41.464Z,3.00
2023-05-13T19:26:10.660Z,2.50
2023-05-13T19:28:40.059Z,3.00
2023-05-13T19:31:08.588Z,3.25
2023-05-13T19:33:40.513Z,2.25
2023-05-13T19:36:10.088Z,3.00
2023-05-13T19:38:38.601Z,2.00
2023-05-13T19:41:06.979Z,2.00
2023-05-13T19:43:35.392Z,3.00
2023-05-13T19:46:03.805Z,2.75
2023-05-13T19:48:32.379Z,3.50
2023-05-13T19:51:00.812Z,4.00
2023-05-13T19:53:29.288Z,1.25
2023-05-13T19:55:57.793Z,2.00
2023-05-13T19:58:26.424Z,3.00
2023-05-13T20:00:55.487Z,2.50
2023-05-13T20:03:23.949Z,1.75
2023-05-13T20:05:53.991Z,3.00
2023-05-13T20:08:22.690Z,3.00
2023-05-13T20:10:51.204Z,2.00
2023-05-13T20:13:20.281Z,2.25
2023-05-13T20:15:48.731Z,2.50
2023-05-13T20:18:17.384Z,2.25
2023-05-13T20:20:47.850Z,2.50
2023-05-13T20:23:16.254Z,2.75
2023-05-13T20:25:44.714Z,3.50
2023-05-13T20:28:13.100Z,2.50
2023-05-13T20:30:44.597Z,3.25
2023-05-13T20:33:14.186Z,5.00
2023-05-13T20:35:43.195Z,2.75
2023-05-13T20:38:11.895Z,2.75
2023-05-13T20:40:40.456Z,2.75
2023-05-13T20:43:08.836Z,1.25
2023-05-13T20:45:40.538Z,2.00
2023-05-13T20:48:10.086Z,2.50
2023-05-13T20:50:38.502Z,2.00
2023-05-13T20:53:07.282Z,2.75
2023-05-13T20:55:35.760Z,3.00
2023-05-13T20:58:04.130Z,4.00
2023-05-13T21:00:32.605Z,3.00
2023-05-13T21:03:01.701Z,3.75
2023-05-13T21:05:30.276Z,2.50
2023-05-13T21:07:58.700Z,1.50
2023-05-13T21:10:27.205Z,4.00
2023-05-13T21:12:55.586Z,4.50
2023-05-13T21:15:23.973Z,2.00
2023-05-13T21:17:52.533Z,3.00
2023-05-13T21:20:21.846Z,2.00
2023-05-13T21:22:50.530Z,3.00
2023-05-13T21:25:19.149Z,2.50
2023-05-13T21:27:47.538Z,2.00
2023-05-13T21:30:15.989Z,2.50
2023-05-13T21:32:44.476Z,2.50
2023-05-13T21:35:14.411Z,3.25
2023-05-13T21:37:43.181Z,3.25
2023-05-13T21:40:12.400Z,3.00
2023-05-13T21:42:40.815Z,3.50
2023-05-13T21:45:09.749Z,3.00
2023-05-13T21:47:38.305Z,2.75
2023-05-13T21:50:12.248Z,3.75
2023-05-13T21:52:40.881Z,2.75
2023-05-13T21:55:09.717Z,2.75
2023-05-13T21:57:38.131Z,3.25
2023-05-13T22:00:11.583Z,3.00
2023-05-13T22:02:40.025Z,3.75
2023-05-13T22:05:09.088Z,3.00
2023-05-13T22:07:37.521Z,3.00
2023-05-13T22:10:07.219Z,4.00
2023-05-13T22:12:35.698Z,3.50
2023-05-13T22:15:04.121Z,4.25
2023-05-13T22:17:32.597Z,3.00
2023-05-13T22:20:01.161Z,2.25
2023-05-13T22:22:29.564Z,3.25
2023-05-13T22:24:57.945Z,1.75
2023-05-13T22:27:26.452Z,3.50
2023-05-13T22:29:54.775Z,2.75
2023-05-13T22:32:23.204Z,2.50
2023-05-13T22:34:51.795Z,2.75
2023-05-13T22:37:20.163Z,3.00
2023-05-13T22:39:48.530Z,3.00
2023-05-13T22:42:16.928Z,2.00
2023-05-13T22:44:45.320Z,3.25
2023-05-13T22:47:13.699Z,3.00
2023-05-13T22:49:42.106Z,3.75
2023-05-13T22:52:10.494Z,3.00
2023-05-13T22:54:38.840Z,4.00
2023-05-13T22:57:07.240Z,4.50
2023-05-13T22:59:36.463Z,3.00
2023-05-13T23:02:05.074Z,3.50
2023-05-13T23:04:33.747Z,3.25
2023-05-13T23:07:02.932Z,3.50
2023-05-13T23:09:31.376Z,2.25
2023-05-13T23:11:59.795Z,2.75
2023-05-13T23:14:30.885Z,3.00
2023-05-13T23:16:59.227Z,2.50
2023-05-13T23:19:27.606Z,3.50
2023-05-13T23:21:55.948Z,3.00
2023-05-13T23:24:24.317Z,3.25
2023-05-13T23:26:52.709Z,3.00
2023-05-13T23:29:21.175Z,2.25
2023-05-13T23:31:49.539Z,3.00
2023-05-13T23:34:17.858Z,1.75
2023-05-13T23:36:46.246Z,3.00
2023-05-13T23:39:14.576Z,3.00
2023-05-13T23:41:42.934Z,2.75
2023-05-13T23:44:11.320Z,2.50
2023-05-13T23:46:39.743Z,2.00
2023-05-13T23:49:08.084Z,3.00
2023-05-13T23:51:36.453Z,2.00
2023-05-13T23:54:04.992Z,4.00
2023-05-13T23:56:33.308Z,2.50
2023-05-13T23:59:01.859Z,4.75
